createdAt,value
2018-06-09T00:02:09.625Z,24.00
2018-06-09T00:04:38.005Z,24.37
2018-06-09T00:07:06.338Z,23.43
2018-06-09T00:09:34.693Z,25.53
2018-06-09T00:12:02.992Z,24.87
2018-06-09T00:14:31.271Z,25.30
2018-06-09T00:16:59.561Z,25.43
2018-06-09T00:19:27.879Z,24.90
2018-06-09T00:21:56.191Z,25.37
2018-06-09T00:24:25.061Z,24.40
2018-06-09T00:26:53.366Z,24.10
2018-06-09T00:29:21.747Z,25.27
2018-06-09T00:31:50.089Z,25.90
2018-06-09T00:34:18.165Z,24.77
2018-06-09T00:36:46.465Z,24.43
2018-06-09T00:39:14.867Z,23.67
2018-06-09T00:41:43.167Z,24.07
2018-06-09T00:44:11.457Z,24.17
2018-06-09T00:46:39.855Z,24.07
2018-06-09T00:49:08.237Z,25.17
2018-06-09T00:51:36.546Z,24.40
2018-06-09T00:54:04.855Z,24.10
2018-06-09T00:56:43.637Z,24.67
2018-06-09T00:59:12.113Z,24.57
2018-06-09T01:01:40.648Z,24.87
2018-06-09T01:04:08.966Z,23.63
2018-06-09T01:06:37.271Z,23.80
2018-06-09T01:09:07.467Z,24.37
2018-06-09T01:11:35.992Z,25.97
2018-06-09T01:14:04.312Z,26.13
2018-06-09T01:16:32.625Z,25.13
2018-06-09T01:19:00.990Z,25.30
2018-06-09T01:21:29.274Z,25.43
2018-06-09T01:23:57.561Z,24.97
2018-06-09T01:26:25.874Z,24.50
2018-06-09T01:28:54.159Z,24.57
2018-06-09T01:31:22.458Z,24.73
2018-06-09T01:33:50.776Z,24.37
2018-06-09T01:36:19.083Z,24.20
2018-06-09T01:38:47.377Z,25.47
2018-06-09T01:41:15.402Z,26.60
2018-06-09T01:43:43.728Z,26.53
2018-06-09T01:46:12.192Z,26.37
2018-06-09T01:48:40.494Z,26.63
2018-06-09T01:51:08.787Z,25.57
2018-06-09T01:53:37.057Z,25.50
2018-06-09T01:56:05.362Z,25.17
2018-06-09T01:58:33.677Z,25.00
2018-06-09T02:01:01.745Z,26.10
2018-06-09T02:03:30.023Z,25.23
2018-06-09T02:05:58.321Z,24.80
2018-06-09T02:08:26.394Z,25.90
2018-06-09T02:10:54.446Z,25.70
2018-06-09T02:13:22.758Z,25.53
2018-06-09T02:15:50.764Z,25.13
2018-06-09T02:18:19.042Z,24.73
2018-06-09T02:20:47.358Z,24.67
2018-06-09T02:23:15.683Z,26.53
2018-06-09T02:25:43.756Z,24.80
2018-06-09T02:28:11.848Z,25.03
2018-06-09T02:30:40.138Z,25.63
2018-06-09T02:33:08.448Z,25.10
2018-06-09T02:35:36.760Z,25.40
2018-06-09T02:38:05.058Z,25.30
2018-06-09T02:40:33.374Z,25.37
2018-06-09T02:43:01.784Z,26.17
2018-06-09T02:45:30.078Z,26.67
2018-06-09T02:47:58.384Z,26.67
2018-06-09T02:50:26.706Z,25.20
2018-06-09T02:52:54.988Z,24.60
2018-06-09T02:55:23.283Z,25.83
2018-06-09T02:57:51.548Z,24.23
2018-06-09T03:00:19.884Z,24.60
2018-06-09T03:02:48.237Z,26.70
2018-06-09T03:05:16.541Z,24.80
2018-06-09T03:07:44.996Z,24.43
2018-06-09T03:10:13.373Z,25.03
2018-06-09T03:12:41.778Z,24.47
2018-06-09T03:15:10.169Z,24.53
2018-06-09T03:17:38.304Z,25.43
2018-06-09T03:20:06.595Z,25.33
2018-06-09T03:22:34.897Z,25.20
2018-06-09T03:25:03.239Z,25.83
2018-06-09T03:27:31.685Z,25.20
2018-06-09T03:29:59.978Z,28.43
2018-06-09T03:32:28.285Z,27.07
2018-06-09T03:34:56.577Z,27.47
2018-06-09T03:37:24.897Z,27.90
2018-06-09T03:39:53.175Z,28.17
2018-06-09T03:42:21.475Z,29.53
2018-06-09T03:44:49.781Z,35.03
2018-06-09T03:47:18.052Z,41.63
2018-06-09T03:49:46.363Z,34.23
2018-06-09T03:52:14.659Z,40.53
2018-06-09T03:54:42.669Z,35.60
2018-06-09T03:57:11.101Z,35.83
2018-06-09T03:59:39.373Z,35.23
2018-06-09T04:02:07.682Z,36.20
2018-06-09T04:04:35.713Z,35.23
2018-06-09T04:07:03.986Z,34.97
2018-06-09T04:09:32.295Z,35.80
2018-06-09T04:12:00.567Z,35.63
2018-06-09T04:14:28.865Z,37.23
2018-06-09T04:16:57.211Z,36.13
2018-06-09T04:19:25.492Z,34.07
2018-06-09T04:21:53.793Z,35.13
2018-06-09T04:24:22.191Z,34.37
2018-06-09T04:26:50.524Z,35.50
2018-06-09T04:29:18.905Z,34.90
2018-06-09T04:31:47.220Z,34.83
2018-06-09T04:34:15.681Z,35.70
2018-06-09T04:36:43.962Z,37.43
2018-06-09T04:39:12.260Z,35.07
2018-06-09T04:41:40.591Z,35.30
2018-06-09T04:44:08.986Z,36.63
2018-06-09T04:46:37.326Z,35.87
2018-06-09T04:49:05.388Z,34.50
2018-06-09T04:51:33.694Z,35.17
2018-06-09T04:54:01.980Z,35.63
2018-06-09T04:56:30.263Z,35.43
2018-06-09T04:58:58.370Z,34.10
2018-06-09T05:01:26.673Z,35.97
2018-06-09T05:03:54.690Z,37.20
2018-06-09T05:06:23.002Z,38.00
2018-06-09T05:08:51.281Z,37.03
2018-06-09T05:11:19.580Z,37.50
2018-06-09T05:13:47.920Z,38.70
2018-06-09T05:16:16.237Z,39.00
2018-06-09T05:18:44.536Z,37.80
2018-06-09T05:21:12.960Z,37.80
2018-06-09T05:23:41.244Z,39.53
2018-06-09T05:26:09.612Z,39.97
2018-06-09T05:28:37.924Z,40.27
2018-06-09T05:31:06.222Z,39.03
2018-06-09T05:33:34.584Z,40.33
2018-06-09T05:36:02.873Z,39.97
2018-06-09T05:38:31.191Z,39.60
2018-06-09T05:40:59.524Z,37.47
2018-06-09T05:43:27.899Z,38.20
2018-06-09T05:45:56.195Z,38.27
2018-06-09T05:48:24.508Z,34.97
2018-06-09T05:50:52.820Z,35.97
2018-06-09T05:53:21.139Z,34.90
2018-06-09T05:55:49.533Z,35.97
2018-06-09T05:58:17.839Z,36.10
2018-06-09T06:00:46.153Z,35.83
2018-06-09T06:03:14.257Z,37.17
2018-06-09T06:05:42.584Z,35.37
2018-06-09T06:08:10.913Z,34.30
2018-06-09T06:10:39.247Z,35.77
2018-06-09T06:13:07.532Z,34.87
2018-06-09T06:15:35.899Z,33.87
2018-06-09T06:18:04.209Z,33.27
2018-06-09T06:20:32.501Z,34.40
2018-06-09T06:23:00.825Z,34.70
2018-06-09T06:25:29.162Z,34.70
2018-06-09T06:27:57.481Z,33.40
2018-06-09T06:30:25.829Z,33.87
2018-06-09T06:32:54.190Z,33.33
2018-06-09T06:35:22.505Z,33.83
2018-06-09T06:37:50.788Z,33.77
2018-06-09T06:40:19.098Z,33.27
2018-06-09T06:42:47.413Z,32.10
2018-06-09T06:45:15.736Z,30.77
2018-06-09T06:47:44.046Z,32.73
2018-06-09T06:50:12.373Z,31.37
2018-06-09T06:52:40.724Z,32.63
2018-06-09T06:55:09.300Z,32.50
2018-06-09T06:57:37.643Z,32.03
2018-06-09T07:00:05.933Z,31.30
2018-06-09T07:02:34.261Z,30.67
2018-06-09T07:05:02.569Z,30.33
2018-06-09T07:07:30.883Z,31.10
2018-06-09T07:09:59.168Z,33.23
2018-06-09T07:12:27.495Z,32.77
2018-06-09T07:14:55.807Z,32.70
2018-06-09T07:17:24.087Z,32.47
2018-06-09T07:19:52.431Z,33.27
2018-06-09T07:22:20.737Z,34.00
2018-06-09T07:24:49.028Z,32.93
2018-06-09T07:27:17.357Z,34.07
2018-06-09T07:29:45.673Z,33.70
2018-06-09T07:32:13.995Z,30.90
2018-06-09T07:34:42.363Z,31.60
2018-06-09T07:37:10.689Z,30.43
2018-06-09T07:39:39.091Z,32.37
2018-06-09T07:42:07.397Z,30.47
2018-06-09T07:44:35.745Z,31.27
2018-06-09T07:47:04.163Z,30.53
2018-06-09T07:49:32.463Z,31.53
2018-06-09T07:52:00.487Z,31.13
2018-06-09T07:54:28.814Z,30.77
2018-06-09T07:56:57.145Z,30.00
2018-06-09T07:59:25.473Z,28.10
2018-06-09T08:01:53.858Z,29.13
2018-06-09T08:04:22.187Z,31.50
2018-06-09T08:06:50.566Z,29.60
2018-06-09T08:09:18.833Z,29.13
2018-06-09T08:11:47.146Z,29.67
2018-06-09T08:14:15.497Z,30.50
2018-06-09T08:16:43.817Z,29.93
2018-06-09T08:19:12.143Z,32.17
2018-06-09T08:21:40.486Z,31.63
2018-06-09T08:24:08.801Z,31.23
2018-06-09T08:26:37.207Z,30.10
2018-06-09T08:29:05.661Z,29.07
2018-06-09T08:31:33.992Z,31.10
2018-06-09T08:34:02.397Z,30.63
2018-06-09T08:36:30.828Z,30.77
2018-06-09T08:38:59.107Z,28.87
2018-06-09T08:41:27.459Z,29.40
2018-06-09T08:43:55.757Z,29.07
2018-06-09T08:46:24.087Z,31.30
2018-06-09T08:48:52.393Z,29.73
2018-06-09T08:51:20.717Z,28.70
2018-06-09T08:53:49.037Z,29.20
2018-06-09T08:56:17.392Z,28.50
2018-06-09T08:58:45.789Z,27.40
2018-06-09T09:01:14.080Z,25.80
2018-06-09T09:03:42.082Z,26.37
2018-06-09T09:06:10.410Z,26.73
2018-06-09T09:08:38.793Z,27.20
2018-06-09T09:11:07.201Z,27.57
2018-06-09T09:13:35.489Z,25.73
2018-06-09T09:16:03.963Z,25.43
2018-06-09T09:18:32.256Z,24.63
2018-06-09T09:21:00.545Z,26.00
2018-06-09T09:23:28.861Z,23.97
2018-06-09T09:25:57.203Z,24.47
2018-06-09T09:28:25.497Z,23.17
2018-06-09T09:30:53.793Z,23.23
2018-06-09T09:33:22.093Z,23.73
2018-06-09T09:35:50.394Z,24.10
2018-06-09T09:38:18.481Z,23.37
2018-06-09T09:40:46.815Z,24.03
2018-06-09T09:43:15.143Z,23.57
2018-06-09T09:45:43.450Z,23.40
2018-06-09T09:48:11.773Z,23.43
2018-06-09T09:50:40.086Z,22.80
2018-06-09T09:53:08.378Z,22.00
2018-06-09T09:55:36.678Z,22.30
2018-06-09T09:58:04.995Z,23.77
2018-06-09T10:00:37.893Z,23.70
2018-06-09T10:03:06.465Z,23.27
2018-06-09T10:05:34.823Z,25.43
2018-06-09T10:08:03.212Z,23.73
2018-06-09T10:10:31.734Z,23.40
2018-06-09T10:13:00.030Z,22.97
2018-06-09T10:15:28.344Z,22.43
2018-06-09T10:17:56.678Z,22.37
2018-06-09T10:20:25.044Z,21.20
2018-06-09T10:22:53.538Z,21.40
2018-06-09T10:25:21.825Z,22.13
2018-06-09T10:27:49.949Z,22.33
2018-06-09T10:30:18.041Z,20.53
2018-06-09T10:32:46.374Z,20.83
2018-06-09T10:35:14.759Z,20.37
2018-06-09T10:37:43.103Z,20.27
2018-06-09T10:40:11.391Z,20.27
2018-06-09T10:42:39.723Z,20.40
2018-06-09T10:45:08.157Z,20.37
2018-06-09T10:47:36.433Z,20.23
2018-06-09T10:50:04.751Z,19.53
2018-06-09T10:52:33.102Z,20.33
2018-06-09T10:55:01.447Z,20.50
2018-06-09T10:57:29.887Z,19.60
2018-06-09T10:59:58.182Z,19.93
2018-06-09T11:02:26.506Z,19.50
2018-06-09T11:04:54.808Z,19.67
2018-06-09T11:07:23.130Z,18.87
2018-06-09T11:09:51.445Z,18.17
2018-06-09T11:12:19.746Z,19.57
2018-06-09T11:14:47.774Z,19.27
2018-06-09T11:17:16.075Z,19.10
2018-06-09T11:19:44.657Z,18.93
2018-06-09T11:22:12.963Z,17.80
2018-06-09T11:24:41.268Z,18.97
2018-06-09T11:27:09.548Z,18.53
2018-06-09T11:29:37.826Z,17.80
2018-06-09T11:32:06.346Z,17.80
2018-06-09T11:34:34.649Z,18.70
2018-06-09T11:37:02.946Z,17.13
2018-06-09T11:39:31.254Z,18.20
2018-06-09T11:41:59.340Z,18.03
2018-06-09T11:44:27.660Z,17.30
2018-06-09T11:46:55.948Z,16.83
2018-06-09T11:49:24.271Z,17.17
2018-06-09T11:51:52.578Z,17.77
2018-06-09T11:54:20.896Z,17.67
2018-06-09T11:56:48.944Z,17.67
2018-06-09T11:59:17.258Z,17.90
2018-06-09T12:01:45.601Z,17.00
2018-06-09T12:04:13.676Z,17.63
2018-06-09T12:06:41.976Z,17.80
2018-06-09T12:09:10.388Z,17.53
2018-06-09T12:11:38.507Z,18.17
2018-06-09T12:14:06.888Z,17.10
2018-06-09T12:16:35.169Z,16.77
2018-06-09T12:19:03.468Z,16.57
2018-06-09T12:21:31.802Z,16.63
2018-06-09T12:24:00.182Z,16.93
2018-06-09T12:26:28.469Z,17.23
2018-06-09T12:28:56.774Z,16.63
2018-06-09T12:31:25.096Z,16.57
2018-06-09T12:33:53.422Z,16.10
2018-06-09T12:36:21.736Z,16.13
2018-06-09T12:38:50.050Z,17.00
2018-06-09T12:41:18.365Z,16.73
2018-06-09T12:43:46.679Z,16.30
2018-06-09T12:46:15.007Z,15.67
2018-06-09T12:48:43.299Z,16.47
2018-06-09T12:51:11.710Z,16.93
2018-06-09T12:53:40.013Z,16.03
2018-06-09T12:56:08.443Z,16.10
2018-06-09T12:58:36.772Z,14.73
2018-06-09T13:01:05.124Z,15.10
2018-06-09T13:03:33.522Z,14.57
2018-06-09T13:06:01.829Z,13.97
2018-06-09T13:08:30.142Z,14.67
2018-06-09T13:10:58.452Z,15.03
2018-06-09T13:13:26.754Z,14.73
2018-06-09T13:15:55.045Z,14.30
2018-06-09T13:18:23.350Z,14.83
2018-06-09T13:20:51.675Z,14.97
2018-06-09T13:23:19.981Z,15.50
2018-06-09T13:25:48.369Z,15.37
2018-06-09T13:28:16.673Z,16.20
2018-06-09T13:30:44.968Z,15.90
2018-06-09T13:33:13.284Z,12.93
2018-06-09T13:35:41.612Z,11.43
2018-06-09T13:38:09.918Z,10.93
2018-06-09T13:40:38.260Z,9.00
2018-06-09T13:43:06.563Z,8.03
2018-06-09T13:45:34.868Z,7.87
2018-06-09T13:48:03.191Z,7.93
2018-06-09T13:50:31.488Z,6.97
2018-06-09T13:52:59.812Z,7.80
2018-06-09T13:55:28.099Z,8.60
2018-06-09T13:57:56.416Z,6.87
2018-06-09T14:00:24.710Z,5.73
2018-06-09T14:02:52.996Z,4.87
2018-06-09T14:05:21.276Z,6.20
2018-06-09T14:07:49.594Z,6.20
2018-06-09T14:10:17.873Z,6.27
2018-06-09T14:12:46.219Z,7.47
2018-06-09T14:15:14.496Z,5.63
2018-06-09T14:17:42.930Z,12.23
